DLH446 EDDF-KDEN
Flight info
| Callsign | DLH446 |
|---|---|
| Flight time | N/A |
| Altitude | 34000 |
| Route | OBOKA3D OBOKA Z28 DIBIR DCT BUDIP DCT MIMVA DCT GETNO DCT NIBOG DCT PIKIL/M084F360 DCT 56N020W 55N030W 53N040W 51N050W DCT ALLRY/N0490F360 DCT ANCER/N0496F380 DCT YYB DCT SSM DCT GEP/N0490F400 J114 ONL DCT PORDR AALLE4 |
| Aircraft | A359/H-SADE2E3GHIJ1J2J3J4J5M1P2RWXYZ/LB1D1 |
Departure
| Time | 2026-05-08 06:34 |
|---|---|
| Airport | Frankfurt Main Airport (EDDF) |
Arrival
| Time | N/A |
|---|---|
| Airport | Denver International Airport (KDEN) |
| Time | Latitude | Longitude | Altitude | Speed | Heading |
|---|---|---|---|---|---|
| 2026-05-08 05:53 | 50.04640 | 8.56654 | 362 ft | 0 kts | 115° |
| 2026-05-08 05:54 | 50.04583 | 8.56613 | 364 ft | 0 kts | 115° |
| 2026-05-08 06:22 | 50.04583 | 8.56612 | 362 ft | 1 kts | 115° |
| 2026-05-08 06:22 | 50.04593 | 8.56579 | 368 ft | 4 kts | 116° |
| 2026-05-08 06:23 | 50.04605 | 8.56541 | 369 ft | 4 kts | 122° |
| 2026-05-08 06:23 | 50.04621 | 8.56509 | 364 ft | 4 kts | 147° |
| 2026-05-08 06:23 | 50.04638 | 8.56502 | 366 ft | 2 kts | 204° |
| 2026-05-08 06:23 | 50.04617 | 8.56487 | 362 ft | 4 kts | 204° |
| 2026-05-08 06:24 | 50.04593 | 8.56470 | 370 ft | 3 kts | 205° |
| 2026-05-08 06:24 | 50.04590 | 8.56468 | 370 ft | 0 kts | 205° |
| 2026-05-08 06:26 | 50.04589 | 8.56467 | 370 ft | 3 kts | 205° |
| 2026-05-08 06:26 | 50.04526 | 8.56400 | 369 ft | 13 kts | 232° |
| 2026-05-08 06:26 | 50.04494 | 8.56288 | 367 ft | 11 kts | 250° |
| 2026-05-08 06:27 | 50.04465 | 8.56167 | 368 ft | 17 kts | 249° |
| 2026-05-08 06:27 | 50.04414 | 8.55990 | 366 ft | 18 kts | 240° |
| 2026-05-08 06:27 | 50.04324 | 8.55942 | 367 ft | 14 kts | 165° |
| 2026-05-08 06:27 | 50.04235 | 8.55901 | 367 ft | 14 kts | 231° |
| 2026-05-08 06:28 | 50.04197 | 8.55760 | 364 ft | 14 kts | 246° |
| 2026-05-08 06:28 | 50.04161 | 8.55615 | 367 ft | 15 kts | 250° |
| 2026-05-08 06:28 | 50.04124 | 8.55458 | 365 ft | 16 kts | 251° |
| 2026-05-08 06:28 | 50.04084 | 8.55291 | 365 ft | 16 kts | 250° |
| 2026-05-08 06:29 | 50.04044 | 8.55123 | 363 ft | 17 kts | 249° |
| 2026-05-08 06:29 | 50.03999 | 8.54934 | 364 ft | 23 kts | 250° |
| 2026-05-08 06:29 | 50.03930 | 8.54641 | 361 ft | 31 kts | 249° |
| 2026-05-08 06:29 | 50.03840 | 8.54325 | 361 ft | 32 kts | 236° |
| 2026-05-08 06:30 | 50.03748 | 8.54003 | 358 ft | 33 kts | 249° |
| 2026-05-08 06:30 | 50.03668 | 8.53671 | 358 ft | 32 kts | 249° |
| 2026-05-08 06:30 | 50.03514 | 8.53478 | 356 ft | 28 kts | 204° |
| 2026-05-08 06:30 | 50.03385 | 8.53474 | 352 ft | 9 kts | 135° |
| 2026-05-08 06:31 | 50.03382 | 8.53481 | 352 ft | 0 kts | 130° |
| 2026-05-08 06:32 | 50.03380 | 8.53484 | 352 ft | 4 kts | 129° |
| 2026-05-08 06:32 | 50.03343 | 8.53528 | 352 ft | 12 kts | 150° |
| 2026-05-08 06:32 | 50.03298 | 8.53611 | 353 ft | 10 kts | 96° |
| 2026-05-08 06:33 | 50.03312 | 8.53679 | 356 ft | 0 kts | 67° |
| 2026-05-08 06:33 | 50.03327 | 8.53737 | 353 ft | 29 kts | 69° |
| 2026-05-08 06:33 | 50.03485 | 8.54395 | 356 ft | 99 kts | 70° |
| 2026-05-08 06:33 | 50.03800 | 8.55710 | 364 ft | 158 kts | 70° |
| 2026-05-08 06:34 | 50.04174 | 8.57365 | 958 ft | 163 kts | 70° |
| 2026-05-08 06:34 | 50.04558 | 8.59047 | 1717 ft | 168 kts | 70° |
| 2026-05-08 06:34 | 50.04986 | 8.60922 | 1779 ft | 200 kts | 70° |
| 2026-05-08 06:34 | 50.05482 | 8.63100 | 1944 ft | 225 kts | 70° |
| 2026-05-08 06:35 | 50.06000 | 8.65414 | 2625 ft | 225 kts | 71° |
| 2026-05-08 06:35 | 50.06496 | 8.67704 | 3383 ft | 222 kts | 71° |
| 2026-05-08 06:35 | 50.07028 | 8.69952 | 4034 ft | 223 kts | 63° |
| 2026-05-08 06:35 | 50.07980 | 8.71849 | 4587 ft | 227 kts | 38° |
| 2026-05-08 06:36 | 50.09404 | 8.73075 | 4903 ft | 244 kts | 24° |
| 2026-05-08 06:36 | 50.11030 | 8.74074 | 5242 ft | 257 kts | 23° |
| 2026-05-08 06:36 | 50.12710 | 8.75118 | 5773 ft | 263 kts | 24° |
| 2026-05-08 06:36 | 50.14421 | 8.76226 | 6358 ft | 268 kts | 24° |
| 2026-05-08 06:37 | 50.16149 | 8.77371 | 6929 ft | 272 kts | 24° |
| 2026-05-08 06:37 | 50.17898 | 8.78543 | 7483 ft | 276 kts | 25° |
| 2026-05-08 06:37 | 50.19670 | 8.79737 | 8055 ft | 279 kts | 25° |
| 2026-05-08 06:37 | 50.21439 | 8.80934 | 8616 ft | 283 kts | 25° |
| 2026-05-08 06:38 | 50.23256 | 8.82158 | 9189 ft | 286 kts | 24° |
| 2026-05-08 06:38 | 50.25183 | 8.82977 | 9650 ft | 290 kts | 5° |
| 2026-05-08 06:38 | 50.27176 | 8.82581 | 10182 ft | 290 kts | 340° |
| 2026-05-08 06:38 | 50.28910 | 8.80933 | 10438 ft | 300 kts | 316° |
| 2026-05-08 06:39 | 50.30065 | 8.78157 | 10538 ft | 314 kts | 291° |
| 2026-05-08 06:39 | 50.30466 | 8.74744 | 10748 ft | 326 kts | 277° |
| 2026-05-08 06:39 | 50.30900 | 8.71215 | 11059 ft | 336 kts | 287° |
| 2026-05-08 06:39 | 50.31608 | 8.67683 | 11403 ft | 343 kts | 289° |
| 2026-05-08 06:40 | 50.32373 | 8.64124 | 11873 ft | 347 kts | 290° |
| 2026-05-08 06:40 | 50.33152 | 8.60537 | 12372 ft | 349 kts | 290° |
| 2026-05-08 06:40 | 50.34011 | 8.56971 | 12901 ft | 351 kts | 296° |
| 2026-05-08 06:40 | 50.35131 | 8.53556 | 13361 ft | 355 kts | 299° |
| 2026-05-08 06:41 | 50.36301 | 8.50122 | 13833 ft | 358 kts | 299° |
| 2026-05-08 06:41 | 50.37470 | 8.46682 | 14291 ft | 359 kts | 299° |
| 2026-05-08 06:41 | 50.38645 | 8.43211 | 14740 ft | 361 kts | 299° |
| 2026-05-08 06:41 | 50.39819 | 8.39727 | 15185 ft | 363 kts | 298° |
| 2026-05-08 06:42 | 50.40996 | 8.36227 | 15643 ft | 364 kts | 298° |
| 2026-05-08 06:42 | 50.42180 | 8.32702 | 16078 ft | 366 kts | 298° |
| 2026-05-08 06:42 | 50.43369 | 8.29153 | 16487 ft | 369 kts | 298° |
| 2026-05-08 06:42 | 50.44566 | 8.25577 | 16927 ft | 370 kts | 298° |
| 2026-05-08 06:43 | 50.45764 | 8.21991 | 17378 ft | 372 kts | 298° |
| 2026-05-08 06:43 | 50.46967 | 8.18383 | 17828 ft | 374 kts | 298° |
| 2026-05-08 06:43 | 50.48176 | 8.14755 | 18233 ft | 376 kts | 298° |
| 2026-05-08 06:43 | 50.49388 | 8.11111 | 18627 ft | 378 kts | 298° |
| 2026-05-08 06:44 | 50.50606 | 8.07445 | 18984 ft | 380 kts | 298° |
| 2026-05-08 06:44 | 50.51829 | 8.03756 | 19338 ft | 382 kts | 298° |
| 2026-05-08 06:44 | 50.53060 | 8.00040 | 19687 ft | 384 kts | 298° |
| 2026-05-08 06:44 | 50.54295 | 7.96306 | 20048 ft | 385 kts | 298° |
| 2026-05-08 06:45 | 50.55530 | 7.92563 | 20390 ft | 387 kts | 298° |
| 2026-05-08 06:45 | 50.56774 | 7.88791 | 20738 ft | 389 kts | 298° |
| 2026-05-08 06:45 | 50.58022 | 7.84999 | 21089 ft | 391 kts | 298° |
| 2026-05-08 06:45 | 50.59273 | 7.81191 | 21429 ft | 393 kts | 298° |
| 2026-05-08 06:46 | 50.60529 | 7.77365 | 21777 ft | 395 kts | 298° |
| 2026-05-08 06:46 | 50.61792 | 7.73510 | 22101 ft | 396 kts | 298° |
| 2026-05-08 06:46 | 50.63057 | 7.69646 | 22438 ft | 398 kts | 298° |
| 2026-05-08 06:46 | 50.64328 | 7.65753 | 22740 ft | 400 kts | 298° |
| 2026-05-08 06:47 | 50.65604 | 7.61840 | 23073 ft | 402 kts | 298° |
| 2026-05-08 06:47 | 50.66884 | 7.57910 | 23399 ft | 404 kts | 298° |
| 2026-05-08 06:47 | 50.68169 | 7.53957 | 23709 ft | 406 kts | 298° |
| 2026-05-08 06:47 | 50.69456 | 7.49991 | 23975 ft | 408 kts | 298° |
| 2026-05-08 06:48 | 50.70749 | 7.46004 | 24229 ft | 410 kts | 297° |
| 2026-05-08 06:48 | 50.72032 | 7.42039 | 24467 ft | 411 kts | 297° |
| 2026-05-08 06:48 | 50.73350 | 7.37958 | 24764 ft | 413 kts | 297° |
| 2026-05-08 06:48 | 50.74719 | 7.33966 | 25053 ft | 414 kts | 302° |
| 2026-05-08 06:49 | 50.76296 | 7.30148 | 25313 ft | 417 kts | 305° |
| 2026-05-08 06:49 | 50.77977 | 7.26409 | 25566 ft | 419 kts | 306° |
| 2026-05-08 06:49 | 50.79702 | 7.22684 | 25828 ft | 421 kts | 307° |
| 2026-05-08 06:49 | 50.81437 | 7.18943 | 26113 ft | 422 kts | 306° |
| 2026-05-08 06:50 | 50.83140 | 7.15229 | 26393 ft | 424 kts | 306° |
| 2026-05-08 06:50 | 50.84858 | 7.11434 | 26683 ft | 425 kts | 306° |
| 2026-05-08 06:50 | 50.86594 | 7.07557 | 26978 ft | 427 kts | 306° |
| 2026-05-08 06:50 | 50.88302 | 7.03716 | 27262 ft | 428 kts | 305° |
| 2026-05-08 06:51 | 50.90017 | 6.99843 | 27555 ft | 430 kts | 305° |
| 2026-05-08 06:51 | 50.91742 | 6.95951 | 27850 ft | 432 kts | 305° |
| 2026-05-08 06:51 | 50.93472 | 6.92039 | 28152 ft | 434 kts | 305° |
| 2026-05-08 06:51 | 50.95204 | 6.88112 | 28433 ft | 436 kts | 305° |
| 2026-05-08 06:52 | 50.96920 | 6.84213 | 28733 ft | 438 kts | 305° |
| 2026-05-08 06:52 | 50.98664 | 6.80250 | 29032 ft | 439 kts | 305° |
| 2026-05-08 06:52 | 51.00439 | 6.76208 | 29336 ft | 441 kts | 305° |
| 2026-05-08 06:52 | 51.02197 | 6.72202 | 29630 ft | 443 kts | 305° |
| 2026-05-08 06:53 | 51.03964 | 6.68171 | 29932 ft | 445 kts | 305° |
| 2026-05-08 06:53 | 51.05734 | 6.64128 | 30215 ft | 447 kts | 305° |
| 2026-05-08 06:53 | 51.07513 | 6.60057 | 30460 ft | 450 kts | 305° |
| 2026-05-08 06:53 | 51.09301 | 6.55959 | 30675 ft | 451 kts | 304° |
| 2026-05-08 06:54 | 51.11069 | 6.51911 | 30941 ft | 453 kts | 304° |
| 2026-05-08 06:54 | 51.12867 | 6.47777 | 31201 ft | 454 kts | 304° |
| 2026-05-08 06:54 | 51.14664 | 6.43632 | 31415 ft | 456 kts | 304° |
| 2026-05-08 06:54 | 51.16467 | 6.39466 | 31676 ft | 458 kts | 304° |
| 2026-05-08 06:55 | 51.18274 | 6.35284 | 31875 ft | 460 kts | 304° |
| 2026-05-08 06:55 | 51.20092 | 6.31072 | 32089 ft | 461 kts | 304° |
| 2026-05-08 06:55 | 51.21910 | 6.26853 | 32312 ft | 463 kts | 304° |
| 2026-05-08 06:55 | 51.23734 | 6.22615 | 32505 ft | 464 kts | 304° |
| 2026-05-08 06:56 | 51.25560 | 6.18365 | 32717 ft | 466 kts | 304° |
| 2026-05-08 06:56 | 51.27393 | 6.14094 | 32866 ft | 468 kts | 304° |
| 2026-05-08 06:56 | 51.29236 | 6.09775 | 33065 ft | 469 kts | 304° |
| 2026-05-08 06:56 | 51.31040 | 6.05429 | 33252 ft | 470 kts | 303° |
| 2026-05-08 06:57 | 51.32829 | 6.01038 | 33459 ft | 472 kts | 303° |
| 2026-05-08 06:57 | 51.34614 | 5.96627 | 33630 ft | 473 kts | 303° |
| 2026-05-08 06:57 | 51.36403 | 5.92211 | 33870 ft | 473 kts | 303° |
| 2026-05-08 06:57 | 51.38386 | 5.88012 | 34093 ft | 472 kts | 311° |
| 2026-05-08 06:58 | 51.40657 | 5.84334 | 34099 ft | 457 kts | 316° |
| 2026-05-08 06:58 | 51.42966 | 5.80925 | 34109 ft | 449 kts | 317° |
| 2026-05-08 06:58 | 51.47638 | 5.74286 | 34123 ft | 449 kts | 319° |
| 2026-05-08 06:59 | 51.52337 | 5.67660 | 34126 ft | 450 kts | 318° |
| 2026-05-08 06:59 | 51.57038 | 5.60980 | 34104 ft | 450 kts | 318° |
| 2026-05-08 07:00 | 51.61714 | 5.54286 | 34106 ft | 450 kts | 318° |
| 2026-05-08 07:00 | 51.66389 | 5.47569 | 34108 ft | 450 kts | 318° |
| 2026-05-08 07:01 | 51.71062 | 5.40836 | 34110 ft | 450 kts | 318° |
| 2026-05-08 07:01 | 51.75722 | 5.34103 | 34111 ft | 450 kts | 318° |
| 2026-05-08 07:02 | 51.80379 | 5.27356 | 34116 ft | 450 kts | 318° |
| 2026-05-08 07:02 | 51.85037 | 5.20586 | 34119 ft | 450 kts | 317° |
| 2026-05-08 07:03 | 51.89692 | 5.13802 | 34124 ft | 450 kts | 317° |
| 2026-05-08 07:03 | 51.94341 | 5.07007 | 34133 ft | 450 kts | 317° |
| 2026-05-08 07:04 | 51.98954 | 5.00247 | 34126 ft | 449 kts | 317° |
| 2026-05-08 07:04 | 52.03587 | 4.93436 | 34125 ft | 449 kts | 317° |
| 2026-05-08 07:05 | 52.08215 | 4.86610 | 34128 ft | 449 kts | 317° |
| 2026-05-08 07:05 | 52.12842 | 4.79768 | 34129 ft | 450 kts | 317° |
| 2026-05-08 07:06 | 52.17464 | 4.72914 | 34128 ft | 450 kts | 317° |
| 2026-05-08 07:06 | 52.22081 | 4.66047 | 34132 ft | 449 kts | 317° |
| 2026-05-08 07:07 | 52.26691 | 4.59170 | 34132 ft | 448 kts | 317° |
| 2026-05-08 07:07 | 52.31289 | 4.52291 | 34137 ft | 448 kts | 317° |
| 2026-05-08 07:08 | 52.35886 | 4.45392 | 34140 ft | 448 kts | 317° |
| 2026-05-08 07:08 | 52.40477 | 4.38482 | 34140 ft | 448 kts | 317° |
| 2026-05-08 07:09 | 52.45063 | 4.31559 | 34149 ft | 448 kts | 317° |
| 2026-05-08 07:09 | 52.49638 | 4.24633 | 34139 ft | 447 kts | 317° |
| 2026-05-08 07:10 | 52.54203 | 4.17700 | 34138 ft | 446 kts | 317° |
| 2026-05-08 07:10 | 52.58757 | 4.10762 | 34138 ft | 446 kts | 317° |
| 2026-05-08 07:11 | 52.63308 | 4.03809 | 34139 ft | 446 kts | 316° |
| 2026-05-08 07:11 | 52.67826 | 3.96886 | 34142 ft | 447 kts | 317° |
| 2026-05-08 07:12 | 52.72373 | 3.89898 | 34141 ft | 447 kts | 317° |
| 2026-05-08 07:12 | 52.76940 | 3.82862 | 34141 ft | 446 kts | 316° |
| 2026-05-08 07:13 | 52.81440 | 3.75904 | 34135 ft | 446 kts | 316° |
| 2026-05-08 07:13 | 52.85966 | 3.68886 | 34134 ft | 446 kts | 316° |
| 2026-05-08 07:14 | 52.90489 | 3.61852 | 34135 ft | 446 kts | 316° |
| 2026-05-08 07:14 | 52.95003 | 3.54811 | 34135 ft | 446 kts | 316° |
| 2026-05-08 07:15 | 52.99513 | 3.47755 | 34136 ft | 445 kts | 316° |
| 2026-05-08 07:15 | 53.04011 | 3.40696 | 34122 ft | 445 kts | 316° |
| 2026-05-08 07:16 | 53.08271 | 3.33238 | 34128 ft | 444 kts | 307° |
| 2026-05-08 07:16 | 53.11209 | 3.24298 | 34114 ft | 440 kts | 290° |
| 2026-05-08 07:17 | 53.12902 | 3.14574 | 34111 ft | 436 kts | 285° |
| 2026-05-08 07:17 | 53.14366 | 3.04795 | 34145 ft | 435 kts | 284° |
| 2026-05-08 07:18 | 53.15559 | 2.96648 | 34132 ft | 436 kts | 284° |
| 2026-05-08 07:18 | 53.17009 | 2.86833 | 34135 ft | 436 kts | 284° |
| 2026-05-08 07:19 | 53.18465 | 2.77011 | 34133 ft | 436 kts | 284° |
| 2026-05-08 07:19 | 53.19918 | 2.67186 | 34135 ft | 436 kts | 284° |
| 2026-05-08 07:20 | 53.21361 | 2.57359 | 34134 ft | 436 kts | 284° |
| 2026-05-08 07:20 | 53.22796 | 2.47515 | 34142 ft | 437 kts | 284° |
| 2026-05-08 07:21 | 53.24226 | 2.37642 | 34134 ft | 437 kts | 284° |
| 2026-05-08 07:21 | 53.25638 | 2.27839 | 34132 ft | 437 kts | 284° |
| 2026-05-08 07:22 | 53.27059 | 2.17900 | 34129 ft | 437 kts | 284° |
| 2026-05-08 07:22 | 53.28453 | 2.08094 | 34135 ft | 437 kts | 284° |
| 2026-05-08 07:23 | 53.29848 | 1.98214 | 34138 ft | 437 kts | 284° |
| 2026-05-08 07:23 | 53.31235 | 1.88330 | 34137 ft | 437 kts | 283° |
| 2026-05-08 07:24 | 53.32615 | 1.78426 | 34137 ft | 437 kts | 283° |
| 2026-05-08 07:24 | 53.33986 | 1.68525 | 34138 ft | 437 kts | 283° |
| 2026-05-08 07:25 | 53.35347 | 1.58625 | 34138 ft | 437 kts | 283° |
| 2026-05-08 07:26 | 53.37375 | 1.43762 | 34130 ft | 436 kts | 283° |
| 2026-05-08 07:26 | 53.38713 | 1.33863 | 34132 ft | 436 kts | 283° |
| 2026-05-08 07:27 | 53.40045 | 1.23948 | 34135 ft | 436 kts | 283° |
| 2026-05-08 07:27 | 53.41367 | 1.14037 | 34130 ft | 435 kts | 283° |
| 2026-05-08 07:28 | 53.42681 | 1.04123 | 34129 ft | 435 kts | 283° |
| 2026-05-08 07:28 | 53.43977 | 0.94278 | 34130 ft | 435 kts | 283° |
| 2026-05-08 07:29 | 53.45279 | 0.84313 | 34126 ft | 434 kts | 283° |
| 2026-05-08 07:29 | 53.46554 | 0.74487 | 34127 ft | 434 kts | 283° |
| 2026-05-08 07:30 | 53.47832 | 0.64571 | 34125 ft | 434 kts | 283° |
| 2026-05-08 07:30 | 53.49101 | 0.54662 | 34121 ft | 434 kts | 283° |
| 2026-05-08 07:31 | 53.50358 | 0.44763 | 34121 ft | 432 kts | 283° |
| 2026-05-08 07:31 | 53.51603 | 0.34906 | 34113 ft | 431 kts | 283° |
| 2026-05-08 07:32 | 53.52837 | 0.25054 | 34112 ft | 431 kts | 283° |
| 2026-05-08 07:32 | 53.54063 | 0.15200 | 34107 ft | 431 kts | 283° |
| 2026-05-08 07:33 | 53.55281 | 0.05340 | 34113 ft | 431 kts | 283° |
| 2026-05-08 07:33 | 53.56490 | -0.04531 | 34103 ft | 430 kts | 283° |
| 2026-05-08 07:34 | 53.57687 | -0.14365 | 34101 ft | 429 kts | 283° |
| 2026-05-08 07:34 | 53.58875 | -0.24193 | 34102 ft | 428 kts | 283° |
| 2026-05-08 07:35 | 53.60054 | -0.34021 | 34102 ft | 428 kts | 283° |
| 2026-05-08 07:35 | 53.61225 | -0.43855 | 34105 ft | 428 kts | 283° |
| 2026-05-08 07:36 | 53.62386 | -0.53688 | 34099 ft | 428 kts | 283° |
| 2026-05-08 07:36 | 53.63540 | -0.63527 | 34098 ft | 428 kts | 283° |
| 2026-05-08 07:37 | 53.64685 | -0.73366 | 34093 ft | 428 kts | 283° |
| 2026-05-08 07:37 | 53.65823 | -0.83209 | 34088 ft | 428 kts | 283° |
| 2026-05-08 07:38 | 53.66951 | -0.93052 | 34083 ft | 428 kts | 282° |
| 2026-05-08 07:38 | 53.68073 | -1.02916 | 34083 ft | 428 kts | 282° |
| 2026-05-08 07:39 | 53.69182 | -1.12752 | 34078 ft | 426 kts | 283° |
| 2026-05-08 07:39 | 53.70275 | -1.22507 | 34078 ft | 425 kts | 283° |
| 2026-05-08 07:40 | 53.71371 | -1.32369 | 34077 ft | 425 kts | 283° |
| 2026-05-08 07:40 | 53.72445 | -1.42108 | 34079 ft | 425 kts | 283° |
| 2026-05-08 07:41 | 53.73518 | -1.51921 | 34085 ft | 425 kts | 282° |
| 2026-05-08 07:41 | 53.74580 | -1.61703 | 34074 ft | 421 kts | 283° |
| 2026-05-08 07:42 | 53.75620 | -1.71368 | 34074 ft | 417 kts | 283° |
| 2026-05-08 07:42 | 53.76649 | -1.81005 | 34076 ft | 416 kts | 283° |
| 2026-05-08 07:43 | 53.77669 | -1.90633 | 34082 ft | 416 kts | 283° |
| 2026-05-08 07:43 | 53.78681 | -2.00261 | 34074 ft | 416 kts | 282° |
| 2026-05-08 07:44 | 53.79685 | -2.09897 | 34084 ft | 416 kts | 282° |
| 2026-05-08 07:44 | 53.80677 | -2.19479 | 34081 ft | 410 kts | 282° |
| 2026-05-08 07:45 | 53.81644 | -2.28919 | 34084 ft | 409 kts | 282° |
| 2026-05-08 07:45 | 53.82615 | -2.38469 | 34082 ft | 409 kts | 282° |
| 2026-05-08 07:46 | 53.83567 | -2.47907 | 34078 ft | 409 kts | 282° |
| 2026-05-08 07:46 | 53.84516 | -2.57391 | 34071 ft | 409 kts | 282° |
| 2026-05-08 07:47 | 53.85458 | -2.66880 | 34079 ft | 407 kts | 281° |
| 2026-05-08 07:47 | 53.86385 | -2.76291 | 34072 ft | 404 kts | 281° |
| 2026-05-08 07:48 | 53.87301 | -2.85700 | 34078 ft | 404 kts | 281° |
| 2026-05-08 07:48 | 53.88210 | -2.95103 | 34076 ft | 404 kts | 281° |
| 2026-05-08 07:49 | 53.89113 | -3.04508 | 34075 ft | 404 kts | 281° |
| 2026-05-08 07:49 | 53.90007 | -3.13916 | 34077 ft | 404 kts | 281° |
| 2026-05-08 07:50 | 53.90887 | -3.23235 | 34080 ft | 402 kts | 281° |
| 2026-05-08 07:50 | 53.91760 | -3.32584 | 34076 ft | 401 kts | 281° |
| 2026-05-08 07:51 | 53.92625 | -3.41934 | 34074 ft | 401 kts | 281° |
| 2026-05-08 07:51 | 53.93709 | -3.51201 | 34075 ft | 400 kts | 288° |
| 2026-05-08 07:52 | 53.95387 | -3.60227 | 34066 ft | 401 kts | 289° |
| 2026-05-08 07:52 | 53.97149 | -3.69222 | 34072 ft | 402 kts | 288° |
| 2026-05-08 07:53 | 53.98910 | -3.78221 | 34065 ft | 400 kts | 288° |
| 2026-05-08 07:53 | 54.00651 | -3.87208 | 34064 ft | 400 kts | 288° |
| 2026-05-08 07:54 | 54.02378 | -3.96200 | 34067 ft | 400 kts | 288° |
| 2026-05-08 07:54 | 54.04097 | -4.05202 | 34056 ft | 400 kts | 288° |
| 2026-05-08 07:55 | 54.05808 | -4.14199 | 34053 ft | 400 kts | 288° |
| 2026-05-08 07:55 | 54.07513 | -4.23208 | 34051 ft | 400 kts | 287° |
| 2026-05-08 07:56 | 54.09209 | -4.32197 | 34044 ft | 397 kts | 287° |
| 2026-05-08 07:56 | 54.10886 | -4.41144 | 34046 ft | 396 kts | 287° |
| 2026-05-08 07:57 | 54.12546 | -4.50043 | 34048 ft | 396 kts | 287° |
| 2026-05-08 07:57 | 54.14218 | -4.59049 | 34027 ft | 396 kts | 287° |
| 2026-05-08 07:58 | 54.15863 | -4.67950 | 34060 ft | 396 kts | 287° |
| 2026-05-08 07:58 | 54.17512 | -4.76915 | 34059 ft | 396 kts | 287° |
| 2026-05-08 07:59 | 54.19153 | -4.85876 | 34039 ft | 393 kts | 286° |
| 2026-05-08 07:59 | 54.20774 | -4.94773 | 34053 ft | 392 kts | 286° |
| 2026-05-08 08:00 | 54.22388 | -5.03678 | 34055 ft | 392 kts | 286° |
| 2026-05-08 08:00 | 54.23993 | -5.12574 | 34061 ft | 392 kts | 286° |
| 2026-05-08 08:01 | 54.25591 | -5.21480 | 34060 ft | 392 kts | 285° |
| 2026-05-08 08:01 | 54.27183 | -5.30393 | 34058 ft | 392 kts | 285° |
| 2026-05-08 08:02 | 54.28769 | -5.39302 | 34058 ft | 390 kts | 285° |
| 2026-05-08 08:02 | 54.30338 | -5.48166 | 34059 ft | 389 kts | 285° |
| 2026-05-08 08:03 | 54.31634 | -5.55534 | 34059 ft | 389 kts | 285° |
| 2026-05-08 08:03 | 54.33190 | -5.64415 | 34059 ft | 389 kts | 285° |
| 2026-05-08 08:04 | 54.34740 | -5.73303 | 34057 ft | 389 kts | 285° |
| 2026-05-08 08:04 | 54.36282 | -5.82182 | 34073 ft | 389 kts | 284° |
| 2026-05-08 08:05 | 54.37818 | -5.91076 | 34052 ft | 389 kts | 284° |
| 2026-05-08 08:05 | 54.39346 | -5.99968 | 34054 ft | 388 kts | 284° |
| 2026-05-08 08:06 | 54.40870 | -6.08875 | 34057 ft | 388 kts | 284° |
| 2026-05-08 08:06 | 54.42384 | -6.17774 | 34056 ft | 388 kts | 284° |
| 2026-05-08 08:07 | 54.43881 | -6.26617 | 34055 ft | 388 kts | 284° |
| 2026-05-08 08:07 | 54.45390 | -6.35576 | 34055 ft | 388 kts | 284° |
| 2026-05-08 08:08 | 54.46885 | -6.44496 | 34075 ft | 388 kts | 283° |
| 2026-05-08 08:08 | 54.48356 | -6.53321 | 34055 ft | 386 kts | 283° |
| 2026-05-08 08:09 | 54.49826 | -6.62186 | 34061 ft | 385 kts | 283° |
| 2026-05-08 08:09 | 54.51287 | -6.71048 | 34056 ft | 385 kts | 283° |
| 2026-05-08 08:10 | 54.52743 | -6.79920 | 34057 ft | 385 kts | 283° |
| 2026-05-08 08:10 | 54.54191 | -6.88785 | 34056 ft | 385 kts | 283° |
| 2026-05-08 08:11 | 54.55634 | -6.97663 | 34074 ft | 385 kts | 283° |
| 2026-05-08 08:11 | 54.57071 | -7.06551 | 34060 ft | 385 kts | 282° |
| 2026-05-08 08:12 | 54.58502 | -7.15456 | 34056 ft | 385 kts | 282° |
| 2026-05-08 08:12 | 54.59925 | -7.24350 | 34047 ft | 384 kts | 282° |
| 2026-05-08 08:13 | 54.61339 | -7.33237 | 34054 ft | 384 kts | 282° |
| 2026-05-08 08:13 | 54.62748 | -7.42143 | 34055 ft | 384 kts | 282° |
| 2026-05-08 08:14 | 54.64149 | -7.51045 | 34052 ft | 384 kts | 282° |
| 2026-05-08 08:14 | 54.65536 | -7.59898 | 34060 ft | 384 kts | 282° |
| 2026-05-08 08:15 | 54.66921 | -7.68797 | 34052 ft | 383 kts | 282° |
| 2026-05-08 08:15 | 54.68299 | -7.77696 | 34053 ft | 383 kts | 282° |
| 2026-05-08 08:16 | 54.69670 | -7.86598 | 34048 ft | 383 kts | 281° |
| 2026-05-08 08:16 | 54.71034 | -7.95493 | 34053 ft | 383 kts | 281° |
| 2026-05-08 08:17 | 54.72390 | -8.04404 | 34045 ft | 383 kts | 281° |
| 2026-05-08 08:17 | 54.73739 | -8.13303 | 34105 ft | 383 kts | 281° |
| 2026-05-08 08:18 | 54.75084 | -8.22232 | 34052 ft | 384 kts | 281° |
| 2026-05-08 08:18 | 54.76426 | -8.31185 | 34053 ft | 384 kts | 281° |
| 2026-05-08 08:19 | 54.77760 | -8.40133 | 34056 ft | 384 kts | 281° |
| 2026-05-08 08:19 | 54.79086 | -8.49082 | 34057 ft | 383 kts | 281° |